sensor_id;sensor_type;location;lat;lon;timestamp;pressure;altitude;pressure_sealevel;temperature;humidity
69257;BME280;56376;53.356;-1.748;2023-06-14T00:01:46;99880.69;;;16.57;63.58
69257;BME280;56376;53.356;-1.748;2023-06-14T00:04:12;99880.34;;;16.48;64.25
69257;BME280;56376;53.356;-1.748;2023-06-14T00:06:38;99878.25;;;16.38;64.57
69257;BME280;56376;53.356;-1.748;2023-06-14T00:09:04;99887.59;;;16.28;64.59
69257;BME280;56376;53.356;-1.748;2023-06-14T00:11:31;99890.78;;;16.17;65.07
69257;BME280;56376;53.356;-1.748;2023-06-14T00:13:56;99886.88;;;16.09;65.05
69257;BME280;56376;53.356;-1.748;2023-06-14T00:16:22;99886.44;;;16.00;65.65
69257;BME280;56376;53.356;-1.748;2023-06-14T00:18:48;99903.66;;;15.90;65.87
69257;BME280;56376;53.356;-1.748;2023-06-14T00:21:13;99892.56;;;15.84;66.14
69257;BME280;56376;53.356;-1.748;2023-06-14T00:23:39;99893.81;;;15.76;66.38
69257;BME280;56376;53.356;-1.748;2023-06-14T00:26:05;99895.91;;;15.70;66.13
69257;BME280;56376;53.356;-1.748;2023-06-14T00:28:30;99886.63;;;15.63;66.20
69257;BME280;56376;53.356;-1.748;2023-06-14T00:30:56;99893.13;;;15.55;66.45
69257;BME280;56376;53.356;-1.748;2023-06-14T00:33:21;99895.16;;;15.50;66.45
69257;BME280;56376;53.356;-1.748;2023-06-14T00:35:46;99899.00;;;15.43;66.43
69257;BME280;56376;53.356;-1.748;2023-06-14T00:38:12;99891.41;;;15.37;66.31
69257;BME280;56376;53.356;-1.748;2023-06-14T00:40:38;99900.47;;;15.31;66.32
69257;BME280;56376;53.356;-1.748;2023-06-14T00:43:03;99899.78;;;15.28;66.56
69257;BME280;56376;53.356;-1.748;2023-06-14T00:45:29;99899.22;;;15.21;66.83
69257;BME280;56376;53.356;-1.748;2023-06-14T00:47:56;99903.00;;;15.15;67.16
69257;BME280;56376;53.356;-1.748;2023-06-14T00:50:23;99902.22;;;15.13;67.20
69257;BME280;56376;53.356;-1.748;2023-06-14T00:52:49;99907.72;;;15.09;67.45
69257;BME280;56376;53.356;-1.748;2023-06-14T00:55:17;99900.03;;;15.04;67.58
69257;BME280;56376;53.356;-1.748;2023-06-14T00:57:42;99907.72;;;15.09;67.15
69257;BME280;56376;53.356;-1.748;2023-06-14T01:00:08;99902.38;;;15.10;66.86
69257;BME280;56376;53.356;-1.748;2023-06-14T01:02:38;99909.28;;;15.13;66.67
69257;BME280;56376;53.356;-1.748;2023-06-14T01:05:06;99890.63;;;15.18;66.40
69257;BME280;56376;53.356;-1.748;2023-06-14T01:15:15;99896.44;;;15.07;68.14
69257;BME280;56376;53.356;-1.748;2023-06-14T01:17:41;99893.66;;;15.10;67.97
69257;BME280;56376;53.356;-1.748;2023-06-14T01:20:11;99884.91;;;15.09;68.46
69257;BME280;56376;53.356;-1.748;2023-06-14T01:23:06;99886.59;;;15.10;68.49
69257;BME280;56376;53.356;-1.748;2023-06-14T01:25:31;99885.59;;;15.13;68.63
69257;BME280;56376;53.356;-1.748;2023-06-14T01:28:03;99889.91;;;15.14;68.87
69257;BME280;56376;53.356;-1.748;2023-06-14T01:30:30;99890.03;;;15.12;68.95
69257;BME280;56376;53.356;-1.748;2023-06-14T01:32:58;99886.59;;;15.10;69.70
69257;BME280;56376;53.356;-1.748;2023-06-14T01:35:24;99892.03;;;15.07;69.96
69257;BME280;56376;53.356;-1.748;2023-06-14T01:37:50;99888.78;;;15.02;70.55
69257;BME280;56376;53.356;-1.748;2023-06-14T01:40:18;99892.53;;;14.97;70.77
69257;BME280;56376;53.356;-1.748;2023-06-14T01:42:44;99881.69;;;14.85;70.81
69257;BME280;56376;53.356;-1.748;2023-06-14T01:45:11;99882.00;;;14.79;71.57
69257;BME280;56376;53.356;-1.748;2023-06-14T01:47:37;99886.84;;;14.69;72.06
69257;BME280;56376;53.356;-1.748;2023-06-14T01:50:03;99880.16;;;14.62;72.68
69257;BME280;56376;53.356;-1.748;2023-06-14T01:52:29;99878.00;;;14.52;72.98
69257;BME280;56376;53.356;-1.748;2023-06-14T01:54:54;99880.84;;;14.47;73.24
69257;BME280;56376;53.356;-1.748;2023-06-14T01:57:21;99888.09;;;14.42;73.62
69257;BME280;56376;53.356;-1.748;2023-06-14T01:59:47;99880.47;;;14.36;73.95
69257;BME280;56376;53.356;-1.748;2023-06-14T02:02:14;99874.69;;;14.29;74.37
69257;BME280;56376;53.356;-1.748;2023-06-14T02:04:40;99882.81;;;14.23;74.70
69257;BME280;56376;53.356;-1.748;2023-06-14T02:07:06;99872.66;;;14.15;75.04
69257;BME280;56376;53.356;-1.748;2023-06-14T02:09:31;99874.75;;;14.09;75.31
69257;BME280;56376;53.356;-1.748;2023-06-14T02:11:56;99872.38;;;14.02;75.47
69257;BME280;56376;53.356;-1.748;2023-06-14T02:14:22;99870.72;;;14.00;75.52
69257;BME280;56376;53.356;-1.748;2023-06-14T02:16:48;99875.19;;;13.98;75.29
69257;BME280;56376;53.356;-1.748;2023-06-14T02:19:18;99865.63;;;13.97;75.21
69257;BME280;56376;53.356;-1.748;2023-06-14T02:21:44;99865.63;;;13.97;75.11
69257;BME280;56376;53.356;-1.748;2023-06-14T02:24:10;99863.00;;;13.97;74.97
69257;BME280;56376;53.356;-1.748;2023-06-14T02:26:36;99864.78;;;13.96;74.66
69257;BME280;56376;53.356;-1.748;2023-06-14T02:29:03;99862.06;;;13.98;74.27
69257;BME280;56376;53.356;-1.748;2023-06-14T02:31:34;99859.28;;;14.01;73.86
69257;BME280;56376;53.356;-1.748;2023-06-14T02:33:59;99861.81;;;14.04;73.66
69257;BME280;56376;53.356;-1.748;2023-06-14T02:36:25;99861.81;;;14.04;72.75
69257;BME280;56376;53.356;-1.748;2023-06-14T02:38:50;99856.81;;;13.98;72.84
69257;BME280;56376;53.356;-1.748;2023-06-14T02:41:15;99852.63;;;13.94;72.86
69257;BME280;56376;53.356;-1.748;2023-06-14T02:43:41;99852.63;;;13.94;73.18
69257;BME280;56376;53.356;-1.748;2023-06-14T02:46:06;99857.81;;;13.95;73.05
69257;BME280;56376;53.356;-1.748;2023-06-14T02:48:32;99850.88;;;13.94;73.29
69257;BME280;56376;53.356;-1.748;2023-06-14T02:50:57;99854.53;;;13.90;73.59
69257;BME280;56376;53.356;-1.748;2023-06-14T02:53:23;99858.09;;;13.89;73.91
69257;BME280;56376;53.356;-1.748;2023-06-14T02:55:48;99856.31;;;13.90;73.56
69257;BME280;56376;53.356;-1.748;2023-06-14T02:58:14;99858.78;;;13.93;72.94
69257;BME280;56376;53.356;-1.748;2023-06-14T03:00:39;99856.25;;;13.91;73.43
69257;BME280;56376;53.356;-1.748;2023-06-14T03:03:06;99852.84;;;13.89;74.14
69257;BME280;56376;53.356;-1.748;2023-06-14T03:05:41;99860.78;;;13.88;74.69
69257;BME280;56376;53.356;-1.748;2023-06-14T03:08:11;99861.06;;;13.81;75.13
69257;BME280;56376;53.356;-1.748;2023-06-14T03:10:51;99857.00;;;13.74;75.69
69257;BME280;56376;53.356;-1.748;2023-06-14T03:13:16;99865.91;;;13.70;76.33
69257;BME280;56376;53.356;-1.748;2023-06-14T03:15:42;99861.59;;;13.69;76.28
69257;BME280;56376;53.356;-1.748;2023-06-14T03:18:08;99859.88;;;13.68;75.70
69257;BME280;56376;53.356;-1.748;2023-06-14T03:20:35;99855.41;;;13.70;75.19
69257;BME280;56376;53.356;-1.748;2023-06-14T03:23:01;99855.38;;;13.72;74.76
69257;BME280;56376;53.356;-1.748;2023-06-14T03:25:27;99849.38;;;13.68;74.20
69257;BME280;56376;53.356;-1.748;2023-06-14T03:27:55;99853.59;;;13.72;72.03
69257;BME280;56376;53.356;-1.748;2023-06-14T03:30:21;99856.06;;;13.75;72.21
69257;BME280;56376;53.356;-1.748;2023-06-14T03:32:46;99847.28;;;13.76;72.11
69257;BME280;56376;53.356;-1.748;2023-06-14T03:35:11;99849.97;;;13.75;72.35
69257;BME280;56376;53.356;-1.748;2023-06-14T03:37:44;99855.03;;;13.79;71.43
69257;BME280;56376;53.356;-1.748;2023-06-14T03:40:10;99855.03;;;13.79;70.93
69257;BME280;56376;53.356;-1.748;2023-06-14T03:42:36;99854.03;;;13.82;70.98
69257;BME280;56376;53.356;-1.748;2023-06-14T03:45:01;99857.44;;;13.84;70.51
69257;BME280;56376;53.356;-1.748;2023-06-14T03:47:27;99863.50;;;13.86;70.21
69257;BME280;56376;53.356;-1.748;2023-06-14T03:49:52;99856.47;;;13.87;70.21
69257;BME280;56376;53.356;-1.748;2023-06-14T03:52:18;99855.53;;;13.88;70.18
69257;BME280;56376;53.356;-1.748;2023-06-14T03:54:43;99852.19;;;13.84;69.92
69257;BME280;56376;53.356;-1.748;2023-06-14T03:57:10;99858.25;;;13.86;70.02
69257;BME280;56376;53.356;-1.748;2023-06-14T03:59:36;99852.25;;;13.82;70.90
69257;BME280;56376;53.356;-1.748;2023-06-14T04:02:02;99853.97;;;13.83;70.91
69257;BME280;56376;53.356;-1.748;2023-06-14T04:04:27;99843.38;;;13.85;70.79
69257;BME280;56376;53.356;-1.748;2023-06-14T04:06:54;99844.22;;;13.85;71.18
69257;BME280;56376;53.356;-1.748;2023-06-14T04:09:20;99845.81;;;13.90;71.10
69257;BME280;56376;53.356;-1.748;2023-06-14T04:11:46;99845.75;;;13.91;71.06
69257;BME280;56376;53.356;-1.748;2023-06-14T04:14:11;99840.41;;;13.93;71.02
69257;BME280;56376;53.356;-1.748;2023-06-14T04:16:36;99846.50;;;13.93;70.92
69257;BME280;56376;53.356;-1.748;2023-06-14T04:19:02;99849.22;;;13.92;70.92
69257;BME280;56376;53.356;-1.748;2023-06-14T04:21:27;99857.09;;;13.92;71.29
69257;BME280;56376;53.356;-1.748;2023-06-14T04:23:54;99859.72;;;13.92;71.77
69257;BME280;56376;53.356;-1.748;2023-06-14T04:26:21;99856.16;;;13.93;72.14
69257;BME280;56376;53.356;-1.748;2023-06-14T04:28:49;99856.97;;;13.95;71.69
69257;BME280;56376;53.356;-1.748;2023-06-14T04:31:14;99855.28;;;13.94;72.16
69257;BME280;56376;53.356;-1.748;2023-06-14T04:33:41;99852.69;;;13.92;72.28
69257;BME280;56376;53.356;-1.748;2023-06-14T04:36:12;99864.84;;;13.95;72.52
69257;BME280;56376;53.356;-1.748;2023-06-14T04:38:38;99860.53;;;13.94;72.69
69257;BME280;56376;53.356;-1.748;2023-06-14T04:41:04;99861.50;;;13.91;73.28
69257;BME280;56376;53.356;-1.748;2023-06-14T04:43:30;99863.25;;;13.91;74.20
69257;BME280;56376;53.356;-1.748;2023-06-14T04:45:57;99861.56;;;13.90;75.17
69257;BME280;56376;53.356;-1.748;2023-06-14T04:48:22;99873.91;;;13.88;74.94
69257;BME280;56376;53.356;-1.748;2023-06-14T04:50:48;99864.19;;;13.90;74.88
69257;BME280;56376;53.356;-1.748;2023-06-14T04:53:13;99867.75;;;13.89;75.44
69257;BME280;56376;53.356;-1.748;2023-06-14T04:55:39;99857.50;;;13.82;76.25
69257;BME280;56376;53.356;-1.748;2023-06-14T04:58:05;99864.72;;;13.77;77.38
69257;BME280;56376;53.356;-1.748;2023-06-14T05:00:30;99863.44;;;13.67;78.35
69257;BME280;56376;53.356;-1.748;2023-06-14T05:02:55;99868.03;;;13.62;79.00
69257;BME280;56376;53.356;-1.748;2023-06-14T05:05:22;99871.59;;;13.61;79.49
69257;BME280;56376;53.356;-1.748;2023-06-14T05:07:47;99869.16;;;13.56;79.71
69257;BME280;56376;53.356;-1.748;2023-06-14T05:10:13;99872.78;;;13.54;79.57
69257;BME280;56376;53.356;-1.748;2023-06-14T05:12:38;99867.75;;;13.48;80.04
69257;BME280;56376;53.356;-1.748;2023-06-14T05:15:04;99878.25;;;13.48;80.23
69257;BME280;56376;53.356;-1.748;2023-06-14T05:17:30;99880.84;;;13.49;80.62
69257;BME280;56376;53.356;-1.748;2023-06-14T05:19:55;99883.50;;;13.48;80.60
69257;BME280;56376;53.356;-1.748;2023-06-14T05:22:21;99892.13;;;13.51;80.79
69257;BME280;56376;53.356;-1.748;2023-06-14T05:24:46;99887.72;;;13.52;80.61
69257;BME280;56376;53.356;-1.748;2023-06-14T05:27:13;99881.53;;;13.53;81.15
69257;BME280;56376;53.356;-1.748;2023-06-14T05:29:39;99885.09;;;13.52;81.51
69257;BME280;56376;53.356;-1.748;2023-06-14T05:32:05;99879.72;;;13.55;81.59
69257;BME280;56376;53.356;-1.748;2023-06-14T05:34:31;99881.28;;;13.59;81.89
69257;BME280;56376;53.356;-1.748;2023-06-14T05:36:56;99880.22;;;13.63;82.12
69257;BME280;56376;53.356;-1.748;2023-06-14T05:39:22;99881.75;;;13.69;81.54
69257;BME280;56376;53.356;-1.748;2023-06-14T05:41:49;99874.34;;;13.78;81.55
69257;BME280;56376;53.356;-1.748;2023-06-14T05:44:14;99879.16;;;13.88;81.30
69257;BME280;56376;53.356;-1.748;2023-06-14T05:46:40;99880.44;;;13.98;81.03
69257;BME280;56376;53.356;-1.748;2023-06-14T05:49:06;99874.78;;;14.07;80.52
69257;BME280;56376;53.356;-1.748;2023-06-14T05:51:31;99877.72;;;14.20;80.22
69257;BME280;56376;53.356;-1.748;2023-06-14T05:53:57;99865.06;;;14.28;80.00
69257;BME280;56376;53.356;-1.748;2023-06-14T05:56:22;99879.44;;;14.40;79.96
69257;BME280;56376;53.356;-1.748;2023-06-14T05:58:47;99876.28;;;14.50;80.38
69257;BME280;56376;53.356;-1.748;2023-06-14T06:01:13;99879.31;;;14.62;79.01
69257;BME280;56376;53.356;-1.748;2023-06-14T06:03:39;99883.41;;;14.67;78.85
69257;BME280;56376;53.356;-1.748;2023-06-14T06:06:04;99886.38;;;14.79;79.03
69257;BME280;56376;53.356;-1.748;2023-06-14T06:08:30;99879.75;;;14.89;78.94
69257;BME280;56376;53.356;-1.748;2023-06-14T06:10:56;99883.50;;;15.02;78.50
69257;BME280;56376;53.356;-1.748;2023-06-14T06:13:22;99879.50;;;15.12;77.75
69257;BME280;56376;53.356;-1.748;2023-06-14T06:15:47;99892.03;;;15.25;77.46
69257;BME280;56376;53.356;-1.748;2023-06-14T06:18:13;99887.09;;;15.36;76.43
69257;BME280;56376;53.356;-1.748;2023-06-14T06:20:38;99885.53;;;15.49;76.39
69257;BME280;56376;53.356;-1.748;2023-06-14T06:23:03;99884.84;;;15.63;75.95
69257;BME280;56376;53.356;-1.748;2023-06-14T06:25:29;99886.09;;;15.73;75.02
69257;BME280;56376;53.356;-1.748;2023-06-14T06:27:57;99887.31;;;15.84;73.93
69257;BME280;56376;53.356;-1.748;2023-06-14T06:30:23;99888.59;;;15.92;73.53
69257;BME280;56376;53.356;-1.748;2023-06-14T06:32:48;99888.91;;;16.04;73.92
69257;BME280;56376;53.356;-1.748;2023-06-14T06:35:14;99892.81;;;16.12;71.90
69257;BME280;56376;53.356;-1.748;2023-06-14T06:37:41;99884.66;;;16.17;72.01
69257;BME280;56376;53.356;-1.748;2023-06-14T06:40:07;99882.47;;;16.25;72.65
69257;BME280;56376;53.356;-1.748;2023-06-14T06:42:34;99880.28;;;16.33;71.96
69257;BME280;56376;53.356;-1.748;2023-06-14T06:45:00;99883.16;;;16.44;73.14
69257;BME280;56376;53.356;-1.748;2023-06-14T06:47:25;99878.31;;;16.53;72.58
69257;BME280;56376;53.356;-1.748;2023-06-14T06:49:51;99895.44;;;16.61;71.27
69257;BME280;56376;53.356;-1.748;2023-06-14T06:52:16;99872.19;;;16.68;70.89
69257;BME280;56376;53.356;-1.748;2023-06-14T06:54:42;99878.72;;;16.78;71.29
69257;BME280;56376;53.356;-1.748;2023-06-14T06:57:07;99886.00;;;16.89;70.61
69257;BME280;56376;53.356;-1.748;2023-06-14T06:59:33;99878.25;;;17.02;70.89
69257;BME280;56376;53.356;-1.748;2023-06-14T07:01:59;99868.84;;;17.12;69.93
69257;BME280;56376;53.356;-1.748;2023-06-14T07:04:24;99869.34;;;17.19;69.48
69257;BME280;56376;53.356;-1.748;2023-06-14T07:06:50;99875.69;;;17.30;68.78
69257;BME280;56376;53.356;-1.748;2023-06-14T07:09:15;99883.16;;;17.38;69.05
69257;BME280;56376;53.356;-1.748;2023-06-14T07:11:43;99872.91;;;17.48;66.67
69257;BME280;56376;53.356;-1.748;2023-06-14T07:14:09;99887.53;;;17.53;66.71
69257;BME280;56376;53.356;-1.748;2023-06-14T07:16:34;99874.91;;;17.59;66.75
69257;BME280;56376;53.356;-1.748;2023-06-14T07:19:01;99880.47;;;17.68;67.53
69257;BME280;56376;53.356;-1.748;2023-06-14T07:21:27;99888.72;;;17.78;67.27
69257;BME280;56376;53.356;-1.748;2023-06-14T07:23:53;99894.25;;;17.89;67.29
69257;BME280;56376;53.356;-1.748;2023-06-14T07:26:19;99896.41;;;17.97;66.16
69257;BME280;56376;53.356;-1.748;2023-06-14T07:28:46;99899.22;;;18.08;65.99
69257;BME280;56376;53.356;-1.748;2023-06-14T07:31:13;99898.97;;;18.13;65.05
69257;BME280;56376;53.356;-1.748;2023-06-14T07:33:40;99893.94;;;18.23;64.90
69257;BME280;56376;53.356;-1.748;2023-06-14T07:36:06;99892.53;;;18.31;64.54
69257;BME280;56376;53.356;-1.748;2023-06-14T07:38:31;99896.28;;;18.42;65.73
69257;BME280;56376;53.356;-1.748;2023-06-14T07:40:56;99896.75;;;18.48;63.69
69257;BME280;56376;53.356;-1.748;2023-06-14T07:43:22;99899.75;;;18.56;64.58
69257;BME280;56376;53.356;-1.748;2023-06-14T07:45:47;99894.94;;;18.63;64.13
69257;BME280;56376;53.356;-1.748;2023-06-14T07:48:13;99893.31;;;18.75;64.27
69257;BME280;56376;53.356;-1.748;2023-06-14T07:50:38;99895.28;;;18.86;63.41
69257;BME280;56376;53.356;-1.748;2023-06-14T07:53:03;99886.56;;;18.98;63.37
69257;BME280;56376;53.356;-1.748;2023-06-14T07:55:29;99902.56;;;19.09;63.41
69257;BME280;56376;53.356;-1.748;2023-06-14T07:57:55;99895.72;;;19.19;61.54
69257;BME280;56376;53.356;-1.748;2023-06-14T08:00:21;99894.44;;;19.25;62.24
69257;BME280;56376;53.356;-1.748;2023-06-14T08:02:46;99894.38;;;19.39;62.90
69257;BME280;56376;53.356;-1.748;2023-06-14T08:05:12;99895.69;;;19.46;61.91
69257;BME280;56376;53.356;-1.748;2023-06-14T08:07:38;99895.69;;;19.59;62.71
69257;BME280;56376;53.356;-1.748;2023-06-14T08:10:05;99892.66;;;19.65;61.33
69257;BME280;56376;53.356;-1.748;2023-06-14T08:12:31;99901.34;;;19.67;59.48
69257;BME280;56376;53.356;-1.748;2023-06-14T08:14:57;99907.00;;;19.76;60.02
69257;BME280;56376;53.356;-1.748;2023-06-14T08:17:23;99892.25;;;19.84;60.11
69257;BME280;56376;53.356;-1.748;2023-06-14T08:19:48;99899.66;;;19.92;58.52
69257;BME280;56376;53.356;-1.748;2023-06-14T08:22:14;99897.97;;;19.91;58.92
69257;BME280;56376;53.356;-1.748;2023-06-14T08:24:40;99900.50;;;19.93;58.72
69257;BME280;56376;53.356;-1.748;2023-06-14T08:27:06;99893.53;;;19.92;58.62
69257;BME280;56376;53.356;-1.748;2023-06-14T08:29:32;99896.16;;;19.92;59.05
69257;BME280;56376;53.356;-1.748;2023-06-14T08:31:58;99900.28;;;19.96;60.88
69257;BME280;56376;53.356;-1.748;2023-06-14T08:34:23;99894.91;;;19.97;60.21
69257;BME280;56376;53.356;-1.748;2023-06-14T08:36:52;99896.69;;;19.97;61.43
69257;BME280;56376;53.356;-1.748;2023-06-14T08:39:17;99894.97;;;19.96;61.75
69257;BME280;56376;53.356;-1.748;2023-06-14T08:41:46;99893.72;;;20.01;61.03
69257;BME280;56376;53.356;-1.748;2023-06-14T08:44:13;99894.66;;;20.00;61.33
69257;BME280;56376;53.356;-1.748;2023-06-14T08:46:38;99912.38;;;20.00;60.80
69257;BME280;56376;53.356;-1.748;2023-06-14T08:49:04;99903.91;;;19.95;60.82
69257;BME280;56376;53.356;-1.748;2023-06-14T08:51:32;99904.97;;;19.92;61.02
69257;BME280;56376;53.356;-1.748;2023-06-14T08:54:02;99914.06;;;19.88;60.85
69257;BME280;56376;53.356;-1.748;2023-06-14T08:56:29;99899.75;;;19.91;61.58
69257;BME280;56376;53.356;-1.748;2023-06-14T08:58:58;99911.13;;;19.93;62.43
69257;BME280;56376;53.356;-1.748;2023-06-14T09:01:33;99908.16;;;19.97;63.60
69257;BME280;56376;53.356;-1.748;2023-06-14T09:03:59;99913.03;;;20.03;61.94
69257;BME280;56376;53.356;-1.748;2023-06-14T09:06:24;99907.75;;;20.03;61.36
69257;BME280;56376;53.356;-1.748;2023-06-14T09:08:50;99897.22;;;20.02;62.01
69257;BME280;56376;53.356;-1.748;2023-06-14T09:11:17;99898.38;;;19.98;61.99
69257;BME280;56376;53.356;-1.748;2023-06-14T09:13:46;99895.63;;;19.99;62.33
69257;BME280;56376;53.356;-1.748;2023-06-14T09:16:12;99893.00;;;19.99;63.02
69257;BME280;56376;53.356;-1.748;2023-06-14T09:18:40;99899.78;;;20.03;63.51
69257;BME280;56376;53.356;-1.748;2023-06-14T09:21:07;99906.69;;;20.06;62.00
69257;BME280;56376;53.356;-1.748;2023-06-14T09:23:37;99899.66;;;20.05;61.12
69257;BME280;56376;53.356;-1.748;2023-06-14T09:26:13;99899.66;;;20.05;62.18
69257;BME280;56376;53.356;-1.748;2023-06-14T09:28:47;99904.13;;;20.04;61.90
69257;BME280;56376;53.356;-1.748;2023-06-14T09:31:15;99917.28;;;20.06;61.92
69257;BME280;56376;53.356;-1.748;2023-06-14T09:33:48;99901.16;;;20.09;61.91
69257;BME280;56376;53.356;-1.748;2023-06-14T09:36:22;99896.59;;;20.11;61.74
69257;BME280;56376;53.356;-1.748;2023-06-14T09:38:57;99902.41;;;20.16;62.22
69257;BME280;56376;53.356;-1.748;2023-06-14T09:44:08;99899.22;;;20.24;61.33
69257;BME280;56376;53.356;-1.748;2023-06-14T09:46:35;99897.09;;;20.29;61.95
69257;BME280;56376;53.356;-1.748;2023-06-14T09:49:02;99908.31;;;20.32;62.30
69257;BME280;56376;53.356;-1.748;2023-06-14T09:51:28;99904.28;;;20.40;64.27
69257;BME280;56376;53.356;-1.748;2023-06-14T09:53:59;99905.78;;;20.44;61.04
69257;BME280;56376;53.356;-1.748;2023-06-14T09:56:30;99904.91;;;20.43;60.92
69257;BME280;56376;53.356;-1.748;2023-06-14T09:58:57;99912.78;;;20.45;60.97
69257;BME280;56376;53.356;-1.748;2023-06-14T10:01:24;99897.81;;;20.44;60.74
69257;BME280;56376;53.356;-1.748;2023-06-14T10:03:55;99900.13;;;20.48;61.69
69257;BME280;56376;53.356;-1.748;2023-06-14T10:06:23;99897.47;;;20.48;60.68
69257;BME280;56376;53.356;-1.748;2023-06-14T10:08:52;99890.03;;;20.53;60.13
69257;BME280;56376;53.356;-1.748;2023-06-14T10:11:19;99898.66;;;20.57;60.82
69257;BME280;56376;53.356;-1.748;2023-06-14T10:13:45;99889.16;;;20.66;59.69
69257;BME280;56376;53.356;-1.748;2023-06-14T10:16:33;99897.44;;;20.74;59.71
69257;BME280;56376;53.356;-1.748;2023-06-14T10:21:57;99896.75;;;20.83;59.15
69257;BME280;56376;53.356;-1.748;2023-06-14T10:24:30;99892.94;;;20.87;58.14
69257;BME280;56376;53.356;-1.748;2023-06-14T10:26:58;99898.00;;;20.90;57.35
69257;BME280;56376;53.356;-1.748;2023-06-14T10:29:27;99899.50;;;20.94;56.36
69257;BME280;56376;53.356;-1.748;2023-06-14T10:31:59;99896.59;;;20.98;55.95
69257;BME280;56376;53.356;-1.748;2023-06-14T10:34:27;99897.00;;;21.04;54.96
69257;BME280;56376;53.356;-1.748;2023-06-14T10:37:12;99886.16;;;21.07;53.28
69257;BME280;56376;53.356;-1.748;2023-06-14T10:39:42;99882.28;;;21.11;52.98
69257;BME280;56376;53.356;-1.748;2023-06-14T10:42:11;99888.09;;;21.16;53.31
69257;BME280;56376;53.356;-1.748;2023-06-14T10:44:46;99882.22;;;21.24;54.00
69257;BME280;56376;53.356;-1.748;2023-06-14T10:47:27;99906.41;;;21.32;54.22
69257;BME280;56376;53.356;-1.748;2023-06-14T10:50:09;99905.88;;;21.40;51.73
69257;BME280;56376;53.356;-1.748;2023-06-14T10:52:41;99895.25;;;21.40;50.11
69257;BME280;56376;53.356;-1.748;2023-06-14T10:55:10;99888.22;;;21.39;50.50
69257;BME280;56376;53.356;-1.748;2023-06-14T10:57:42;99887.13;;;21.42;50.62
69257;BME280;56376;53.356;-1.748;2023-06-14T11:00:09;99891.25;;;21.46;50.15
69257;BME280;56376;53.356;-1.748;2023-06-14T11:05:23;99883.69;;;21.52;49.64
69257;BME280;56376;53.356;-1.748;2023-06-14T11:10:41;99878.28;;;21.65;49.80
69257;BME280;56376;53.356;-1.748;2023-06-14T11:13:08;99877.94;;;21.70;49.11
69257;BME280;56376;53.356;-1.748;2023-06-14T11:15:36;99880.00;;;21.77;47.13
69257;BME280;56376;53.356;-1.748;2023-06-14T11:18:04;99878.75;;;21.81;47.09
69257;BME280;56376;53.356;-1.748;2023-06-14T11:20:31;99875.75;;;21.86;47.03
69257;BME280;56376;53.356;-1.748;2023-06-14T11:22:57;99883.13;;;21.94;43.81
69257;BME280;56376;53.356;-1.748;2023-06-14T11:25:23;99886.16;;;21.89;43.84
69257;BME280;56376;53.356;-1.748;2023-06-14T11:27:51;99884.47;;;21.88;44.28
69257;BME280;56376;53.356;-1.748;2023-06-14T11:30:18;99877.44;;;21.87;44.39
69257;BME280;56376;53.356;-1.748;2023-06-14T11:32:47;99873.00;;;21.88;44.93
69257;BME280;56376;53.356;-1.748;2023-06-14T11:35:13;99874.56;;;21.90;43.76
69257;BME280;56376;53.356;-1.748;2023-06-14T11:37:39;99883.38;;;21.91;44.38
69257;BME280;56376;53.356;-1.748;2023-06-14T11:40:07;99877.56;;;21.97;44.02
69257;BME280;56376;53.356;-1.748;2023-06-14T11:42:33;99869.47;;;21.98;44.25
69257;BME280;56376;53.356;-1.748;2023-06-14T11:44:59;99872.88;;;22.00;44.71
69257;BME280;56376;53.356;-1.748;2023-06-14T11:47:30;99871.06;;;22.01;44.56
69257;BME280;56376;53.356;-1.748;2023-06-14T11:49:58;99865.63;;;22.02;44.90
69257;BME280;56376;53.356;-1.748;2023-06-14T11:52:23;99872.38;;;22.07;44.44
69257;BME280;56376;53.356;-1.748;2023-06-14T11:54:49;99865.38;;;22.06;44.46
69257;BME280;56376;53.356;-1.748;2023-06-14T11:57:14;99877.34;;;22.11;44.38
69257;BME280;56376;53.356;-1.748;2023-06-14T11:59:40;99863.19;;;22.11;43.88
69257;BME280;56376;53.356;-1.748;2023-06-14T12:02:06;99861.97;;;22.15;43.72
69257;BME280;56376;53.356;-1.748;2023-06-14T12:04:32;99866.34;;;22.16;44.25
69257;BME280;56376;53.356;-1.748;2023-06-14T12:07:12;99870.84;;;22.27;44.38
69257;BME280;56376;53.356;-1.748;2023-06-14T12:09:39;99863.94;;;22.35;44.21
69257;BME280;56376;53.356;-1.748;2023-06-14T12:12:05;99872.28;;;22.42;43.73
69257;BME280;56376;53.356;-1.748;2023-06-14T12:14:31;99862.00;;;22.49;43.76
69257;BME280;56376;53.356;-1.748;2023-06-14T12:17:04;99877.09;;;22.59;43.62
69257;BME280;56376;53.356;-1.748;2023-06-14T12:19:32;99861.59;;;22.64;42.08
69257;BME280;56376;53.356;-1.748;2023-06-14T12:21:59;99869.19;;;22.69;42.26
69257;BME280;56376;53.356;-1.748;2023-06-14T12:24:29;99874.25;;;22.72;42.82
69257;BME280;56376;53.356;-1.748;2023-06-14T12:26:57;99871.13;;;22.78;43.67
69257;BME280;56376;53.356;-1.748;2023-06-14T12:29:25;99877.59;;;22.85;43.91
69257;BME280;56376;53.356;-1.748;2023-06-14T12:31:50;99871.06;;;22.89;42.54
69257;BME280;56376;53.356;-1.748;2023-06-14T12:34:16;99865.97;;;22.98;42.75
69257;BME280;56376;53.356;-1.748;2023-06-14T12:36:41;99860.16;;;23.04;42.16
69257;BME280;56376;53.356;-1.748;2023-06-14T12:39:09;99874.16;;;23.17;41.91
69257;BME280;56376;53.356;-1.748;2023-06-14T12:41:35;99871.56;;;23.27;41.37
69257;BME280;56376;53.356;-1.748;2023-06-14T12:44:01;99861.94;;;23.36;41.61
69257;BME280;56376;53.356;-1.748;2023-06-14T12:46:30;99877.44;;;23.42;40.56
69257;BME280;56376;53.356;-1.748;2023-06-14T12:48:56;99884.16;;;23.46;39.32
69257;BME280;56376;53.356;-1.748;2023-06-14T12:51:21;99879.91;;;23.54;40.30
69257;BME280;56376;53.356;-1.748;2023-06-14T12:53:47;99873.38;;;23.68;40.02
69257;BME280;56376;53.356;-1.748;2023-06-14T12:56:14;99868.00;;;23.80;39.59
69257;BME280;56376;53.356;-1.748;2023-06-14T12:58:41;99885.34;;;23.95;39.18
69257;BME280;56376;53.356;-1.748;2023-06-14T13:01:06;99875.56;;;24.05;39.22
69257;BME280;56376;53.356;-1.748;2023-06-14T13:03:32;99875.34;;;24.18;39.19
69257;BME280;56376;53.356;-1.748;2023-06-14T13:05:58;99875.50;;;24.26;38.46
69257;BME280;56376;53.356;-1.748;2023-06-14T13:08:24;99877.50;;;24.34;39.21